Time;durP1;ratioP1;P1;durP2;ratioP2;P2;SDS_P1;SDS_P2;PMS_P1;PMS_P2;Temp;Humidity;BMP_temperature;BMP_pressure;BME280_temperature;BME280_humidity;BME280_pressure;Samples;Min_cycle;Max_cycle;Signal;HPM_P1;HPM_P2
2022/04/11 00:00:21;;;;;;;0.40;0.40;;;9.40;99.90;9.80;101780.00;;;;5097765;28;20180;-68
2022/04/11 00:02:50;;;;;;;0.30;0.30;;;9.40;99.90;9.80;101774.00;;;;5113424;28;20696;-68
2022/04/11 00:05:22;;;;;;;0.67;0.63;;;9.40;99.90;9.70;101737.00;;;;5114894;28;20177;-69
2022/04/11 00:07:54;;;;;;;0.20;0.20;;;9.40;99.90;10.00;101766.00;;;;5098923;28;20658;-68
2022/04/11 00:10:22;;;;;;;0.20;0.20;;;9.50;99.90;9.80;101762.00;;;;5116251;28;20660;-68
2022/04/11 00:12:48;;;;;;;0.20;0.20;;;9.50;99.90;10.00;101759.00;;;;5097774;28;20660;-68
2022/04/11 00:15:19;;;;;;;0.80;0.80;;;9.60;99.90;9.70;101712.00;;;;5097631;28;20195;-68
2022/04/11 00:17:45;;;;;;;0.20;0.20;;;9.40;99.90;9.60;101755.00;;;;5114821;28;20223;-68
2022/04/11 00:20:13;;;;;;;0.30;0.30;;;9.40;99.90;9.30;101735.00;;;;5114543;28;20184;-68
2022/04/11 00:22:39;;;;;;;1.03;1.03;;;9.20;99.90;9.50;101743.00;;;;5114816;28;20257;-68
2022/04/11 00:25:05;;;;;;;0.20;0.20;;;9.30;99.90;9.30;101738.00;;;;5097190;28;20647;-68
2022/04/11 00:27:34;;;;;;;0.50;0.50;;;9.10;99.90;9.60;101744.00;;;;5114161;28;20646;-68
2022/04/11 00:30:03;;;;;;;0.30;0.30;;;9.30;99.90;9.40;101740.00;;;;5098399;28;20204;-68
2022/04/11 00:32:32;;;;;;;0.20;0.20;;;9.20;99.90;9.30;101747.00;;;;5113529;28;20216;-68
2022/04/11 00:34:58;;;;;;;0.20;0.20;;;9.20;99.90;9.20;101738.00;;;;5096970;28;20270;-68
2022/04/11 00:37:26;;;;;;;0.70;0.70;;;9.10;99.90;9.20;101741.00;;;;5097580;28;20276;-68
2022/04/11 00:39:57;;;;;;;0.20;0.20;;;9.10;99.90;9.20;101726.00;;;;5097388;28;20184;-68
2022/04/11 00:42:31;;;;;;;0.20;0.20;;;9.00;99.90;9.10;101714.00;;;;5114329;28;20267;-68
2022/04/11 00:45:00;;;;;;;0.20;0.20;;;9.00;99.90;9.10;101718.00;;;;5113500;28;20157;-68
2022/04/11 00:47:34;;;;;;;0.77;0.77;;;9.00;99.90;9.10;101726.00;;;;5113963;28;20612;-68
2022/04/11 00:50:11;;;;;;;0.20;0.20;;;9.00;99.90;9.10;101678.00;;;;5114248;28;20181;-67
2022/04/11 00:52:55;;;;;;;0.70;0.70;;;9.00;99.90;8.90;101711.00;;;;5112454;28;20188;-67
2022/04/11 00:55:27;;;;;;;0.10;0.10;;;8.90;99.90;8.90;101716.00;;;;5112235;28;20176;-68
2022/04/11 00:57:54;;;;;;;0.60;0.60;;;8.80;99.90;9.20;101712.00;;;;5113902;28;20200;-67
2022/04/11 01:00:29;;;;;;;0.20;0.20;;;9.00;99.90;9.20;101689.00;;;;5114006;28;20199;-67
2022/04/11 01:03:00;;;;;;;0.67;0.67;;;9.00;99.90;9.10;101697.00;;;;5113795;28;20551;-67
2022/04/11 01:05:29;;;;;;;0.30;0.30;;;8.90;99.90;9.00;101705.00;;;;5095057;28;20660;-68
2022/04/11 01:08:08;;;;;;;0.20;0.20;;;8.80;99.90;8.90;101658.00;;;;5113760;28;20183;-68
2022/04/11 01:10:43;;;;;;;0.10;0.10;;;8.80;99.90;8.80;101704.00;;;;5114880;28;20180;-68
2022/04/11 01:13:13;;;;;;;0.20;0.20;;;8.70;99.90;8.80;101699.00;;;;5113622;28;20289;-68
2022/04/11 01:15:55;;;;;;;0.17;0.17;;;8.70;99.90;9.20;101693.00;;;;5112056;28;20179;-68
2022/04/11 01:18:32;;;;;;;0.20;0.20;;;8.70;99.90;9.00;101697.00;;;;5095624;28;20184;-68
2022/04/11 01:21:06;;;;;;;1.70;1.60;;;8.70;99.90;8.80;101690.00;;;;5113896;28;20176;-68
2022/04/11 01:23:32;;;;;;;0.40;0.40;;;8.60;99.90;8.50;101687.00;;;;5112209;28;20271;-68
2022/04/11 01:26:04;;;;;;;4.23;3.93;;;8.50;99.90;9.00;101693.00;;;;5095826;28;20280;-68
2022/04/11 01:28:31;;;;;;;0.60;0.60;;;8.50;99.90;8.90;101673.00;;;;5113022;28;20177;-68
2022/04/11 01:31:02;;;;;;;0.20;0.20;;;8.50;99.90;8.70;101693.00;;;;5112942;28;20176;-68
2022/04/11 01:33:32;;;;;;;0.20;0.20;;;8.40;99.90;8.70;101678.00;;;;5095938;28;20563;-69
2022/04/11 01:35:58;;;;;;;0.43;0.43;;;8.40;99.90;8.80;101681.00;;;;5112862;28;20214;-68
2022/04/11 01:38:24;;;;;;;0.70;0.70;;;8.40;99.90;8.40;101671.00;;;;5096124;28;20697;-69
2022/04/11 01:40:55;;;;;;;3.20;1.37;;;8.30;99.90;8.40;101672.00;;;;5096674;28;20220;-68
2022/04/11 01:43:29;;;;;;;0.20;0.20;;;8.10;99.90;8.20;101675.00;;;;5095809;28;20776;-68
2022/04/11 01:45:57;;;;;;;0.30;0.30;;;8.10;99.90;8.10;101661.00;;;;5111599;28;20618;-68
2022/04/11 01:48:26;;;;;;;0.30;0.30;;;8.00;99.90;8.40;101653.00;;;;5095853;28;20181;-68
2022/04/11 01:50:59;;;;;;;0.30;0.30;;;8.00;99.90;8.30;101660.00;;;;5112362;28;20576;-68
2022/04/11 01:53:35;;;;;;;0.80;0.80;;;8.00;99.90;8.10;101658.00;;;;5111496;28;20704;-68
2022/04/11 01:56:01;;;;;;;0.30;0.30;;;7.90;99.90;7.80;101656.00;;;;5113120;28;20186;-69
2022/04/11 01:58:27;;;;;;;0.30;0.30;;;7.80;99.90;7.70;101625.00;;;;5096056;28;20184;-68
2022/04/11 02:00:58;;;;;;;0.30;0.30;;;7.70;99.90;7.70;101641.00;;;;5111907;28;20526;-69
2022/04/11 02:03:25;;;;;;;0.30;0.30;;;7.60;99.90;7.60;101637.00;;;;5111640;28;20631;-69
2022/04/11 02:05:51;;;;;;;0.30;0.30;;;7.50;99.90;7.60;101635.00;;;;5112531;28;20272;-68
2022/04/11 02:08:17;;;;;;;0.40;0.40;;;7.50;99.90;7.50;101629.00;;;;5112916;28;20179;-68
2022/04/11 02:10:49;;;;;;;0.40;0.40;;;7.40;99.90;7.50;101630.00;;;;5112909;28;20233;-68
2022/04/11 02:13:14;;;;;;;0.40;0.40;;;7.40;99.90;7.40;101590.00;;;;5096397;28;20204;-68
2022/04/11 02:15:40;;;;;;;0.40;0.40;;;7.30;99.90;7.40;101627.00;;;;5112438;28;20184;-68
2022/04/11 02:18:11;;;;;;;0.60;0.60;;;7.30;99.90;7.30;101630.00;;;;5095307;28;20180;-68
2022/04/11 02:20:37;;;;;;;0.50;0.50;;;7.30;99.90;7.40;101619.00;;;;5112627;28;20643;-68
2022/04/11 02:23:03;;;;;;;0.50;0.50;;;7.30;99.90;7.20;101626.00;;;;5112093;28;20186;-68
2022/04/11 02:25:34;;;;;;;0.50;0.50;;;7.30;99.90;7.10;101582.00;;;;5094996;28;20676;-68
2022/04/11 02:28:02;;;;;;;0.60;0.60;;;7.10;99.90;7.30;101623.00;;;;5095525;28;20240;-69
2022/04/11 02:30:28;;;;;;;0.50;0.50;;;7.20;99.90;7.60;101625.00;;;;5112205;28;20174;-69
2022/04/11 02:32:55;;;;;;;0.40;0.40;;;7.30;99.90;7.50;101631.00;;;;5095003;28;20254;-69
2022/04/11 02:35:23;;;;;;;0.67;0.67;;;7.40;99.90;7.20;101604.00;;;;5111962;28;20186;-68
2022/04/11 02:37:55;;;;;;;0.50;0.50;;;7.30;99.90;7.20;101578.00;;;;5112521;28;20183;-68
2022/04/11 02:40:25;;;;;;;0.50;0.50;;;7.30;99.90;7.00;101614.00;;;;5110955;28;20174;-69
2022/04/11 02:42:53;;;;;;;1.60;1.40;;;7.10;99.90;6.80;101622.00;;;;5111637;28;20179;-68
2022/04/11 02:45:21;;;;;;;0.60;0.60;;;7.00;99.90;6.50;101600.00;;;;5094941;28;20633;-68
2022/04/11 02:47:49;;;;;;;0.50;0.50;;;6.90;99.90;6.50;101600.00;;;;5095387;28;20634;-68
2022/04/11 02:50:21;;;;;;;0.50;0.50;;;6.70;99.90;6.50;101587.00;;;;5111605;28;20183;-68
2022/04/11 02:52:49;;;;;;;0.50;0.50;;;6.70;99.90;6.50;101597.00;;;;5112297;28;20216;-68
2022/04/11 02:55:21;;;;;;;3.00;2.83;;;6.70;99.90;6.50;101551.00;;;;5112375;28;20258;-68
2022/04/11 02:57:46;;;;;;;0.50;0.50;;;6.70;99.90;6.60;101549.00;;;;5113390;28;20178;-68
2022/04/11 03:00:16;;;;;;;0.50;0.50;;;6.80;99.90;6.80;101587.00;;;;5093860;28;20179;-69
2022/04/11 03:02:44;;;;;;;0.50;0.50;;;6.80;99.90;6.80;101597.00;;;;5111301;28;20931;-68
2022/04/11 03:05:12;;;;;;;0.60;0.60;;;6.80;99.90;6.80;101601.00;;;;5111699;28;20543;-69
2022/04/11 03:07:42;;;;;;;0.50;0.50;;;6.90;99.90;6.60;101598.00;;;;5112179;28;20194;-68
2022/04/11 03:10:10;;;;;;;0.60;0.60;;;6.70;99.90;6.60;101608.00;;;;5095351;28;20213;-68
2022/04/11 03:12:39;;;;;;;0.83;0.83;;;6.70;99.90;6.60;101576.00;;;;5113472;28;20231;-68
2022/04/11 03:15:06;;;;;;;2.20;2.10;;;6.70;99.90;6.50;101578.00;;;;5093761;28;20278;-69
2022/04/11 03:17:34;;;;;;;0.50;0.50;;;6.70;99.90;6.60;101587.00;;;;5110441;28;20623;-67
2022/04/11 03:20:00;;;;;;;0.70;0.70;;;6.70;99.90;6.90;101593.00;;;;5114924;28;20186;-68
2022/04/11 03:22:29;;;;;;;0.67;0.67;;;6.80;99.90;7.00;101587.00;;;;5098892;28;20189;-68
2022/04/11 03:24:58;;;;;;;0.50;0.50;;;6.80;99.90;7.20;101595.00;;;;5098768;28;20177;-68
2022/04/11 03:27:24;;;;;;;0.93;0.93;;;7.10;99.90;6.80;101595.00;;;;5115661;28;20622;-67
2022/04/11 03:29:50;;;;;;;0.80;0.80;;;6.90;99.90;6.70;101587.00;;;;5098343;28;20268;-67
2022/04/11 03:32:20;;;;;;;0.70;0.70;;;6.70;99.90;6.60;101582.00;;;;5115185;28;20657;-68
2022/04/11 03:34:50;;;;;;;0.80;0.80;;;6.70;99.90;6.70;101591.00;;;;5114903;28;20186;-67
2022/04/11 03:37:16;;;;;;;1.90;1.90;;;6.80;99.90;6.40;101598.00;;;;5098915;28;20712;-68
2022/04/11 03:39:42;;;;;;;1.33;1.33;;;6.60;99.90;6.40;101588.00;;;;5098654;28;20273;-67
2022/04/11 03:42:14;;;;;;;0.93;0.93;;;6.60;99.90;6.40;101578.00;;;;5115138;28;20183;-68
2022/04/11 03:44:42;;;;;;;0.77;0.77;;;6.50;99.90;6.70;101587.00;;;;5115402;28;20178;-67
2022/04/11 03:47:13;;;;;;;1.27;1.27;;;6.70;99.90;6.40;101586.00;;;;5114445;28;20176;-67
2022/04/11 03:49:41;;;;;;;0.70;0.70;;;6.60;99.90;6.30;101572.00;;;;5115248;28;20177;-67
2022/04/11 03:52:09;;;;;;;2.40;2.20;;;6.50;99.90;6.10;101527.00;;;;5115207;28;20234;-67
2022/04/11 03:54:37;;;;;;;0.50;0.50;;;6.40;99.90;6.00;101563.00;;;;5098728;28;20176;-67
2022/04/11 03:57:06;;;;;;;0.70;0.70;;;6.30;99.90;6.10;101566.00;;;;5114552;28;20182;-67
2022/04/11 03:59:34;;;;;;;1.33;1.33;;;6.30;99.90;6.10;101564.00;;;;5115230;28;20179;-67
2022/04/11 04:02:03;;;;;;;0.70;0.70;;;6.30;99.90;6.30;101559.00;;;;5097932;28;20189;-67
2022/04/11 04:04:29;;;;;;;0.70;0.70;;;6.50;99.90;6.10;101561.00;;;;5113931;28;20180;-68
2022/04/11 04:06:58;;;;;;;0.80;0.80;;;6.30;99.90;6.20;101560.00;;;;5114943;28;20188;-67
2022/04/11 04:09:23;;;;;;;0.60;0.60;;;6.30;99.90;6.20;101556.00;;;;5097582;28;20228;-68
2022/04/11 04:11:49;;;;;;;0.80;0.80;;;6.30;99.90;6.20;101534.00;;;;5097170;28;20236;-67
2022/04/11 04:14:15;;;;;;;1.00;1.00;;;6.40;99.90;6.10;101535.00;;;;5097293;28;20212;-68
2022/04/11 04:16:41;;;;;;;0.67;0.67;;;6.40;99.90;6.30;101503.00;;;;5114978;28;20180;-67
2022/04/11 04:19:08;;;;;;;0.87;0.87;;;6.50;99.90;5.90;101546.00;;;;5114573;28;20189;-68
2022/04/11 04:21:34;;;;;;;1.30;1.30;;;6.30;99.90;5.80;101542.00;;;;5114723;28;20684;-67
2022/04/11 04:24:03;;;;;;;1.00;1.00;;;6.20;99.90;6.00;101544.00;;;;5096931;28;20189;-67
2022/04/11 04:26:29;;;;;;;0.67;0.67;;;6.20;99.90;5.80;101538.00;;;;5097964;28;20172;-68
2022/04/11 04:29:00;;;;;;;1.90;1.80;;;6.20;99.90;5.90;101532.00;;;;5114049;28;20188;-67
2022/04/11 04:31:28;;;;;;;0.73;0.73;;;6.20;99.90;5.70;101522.00;;;;5114331;28;20205;-68
2022/04/11 04:33:54;;;;;;;0.80;0.80;;;6.20;99.90;6.00;101535.00;;;;5115520;28;20188;-68
2022/04/11 04:36:20;;;;;;;1.00;1.00;;;6.20;99.90;5.80;101519.00;;;;5097039;28;20216;-67
2022/04/11 04:38:46;;;;;;;0.70;0.70;;;6.20;99.90;5.80;101527.00;;;;5096865;28;20583;-68
2022/04/11 04:41:15;;;;;;;0.70;0.70;;;6.10;99.90;6.10;101526.00;;;;5113534;28;20318;-67
2022/04/11 04:43:42;;;;;;;1.57;1.57;;;6.20;99.90;5.90;101519.00;;;;5097265;28;20194;-67
2022/04/11 04:46:08;;;;;;;1.47;1.43;;;6.10;99.90;6.00;101528.00;;;;5113956;28;20181;-67
2022/04/11 04:48:37;;;;;;;0.93;0.93;;;6.10;99.90;6.10;101486.00;;;;5097001;28;20180;-67
2022/04/11 04:51:03;;;;;;;1.13;0.90;;;6.20;99.90;6.30;101521.00;;;;5114135;28;20172;-67
2022/04/11 04:53:31;;;;;;;1.27;1.27;;;6.30;99.90;6.00;101532.00;;;;5114614;28;20690;-67
2022/04/11 04:55:57;;;;;;;1.30;1.30;;;6.30;99.90;6.30;101519.00;;;;5113398;28;20176;-67
2022/04/11 04:58:23;;;;;;;0.93;0.93;;;6.40;99.90;6.20;101527.00;;;;5096245;28;20188;-67
2022/04/11 05:00:51;;;;;;;0.70;0.70;;;6.40;99.90;6.20;101477.00;;;;5096512;28;20266;-67
2022/04/11 05:03:21;;;;;;;0.93;0.93;;;6.40;99.90;5.90;101523.00;;;;5112886;28;20193;-67
2022/04/11 05:05:49;;;;;;;0.70;0.70;;;6.30;99.90;6.10;101511.00;;;;5114120;28;20168;-68
2022/04/11 05:08:15;;;;;;;2.20;1.23;;;6.30;99.90;5.80;101522.00;;;;5113990;28;20180;-68
2022/04/11 05:10:41;;;;;;;0.80;0.80;;;6.20;99.90;5.90;101513.00;;;;5113126;28;20179;-68
2022/04/11 05:13:12;;;;;;;1.50;1.20;;;6.20;99.90;5.90;101514.00;;;;5096474;28;20602;-67
2022/04/11 05:15:39;;;;;;;0.73;0.73;;;6.20;99.90;5.90;101512.00;;;;5097335;28;20180;-67
2022/04/11 05:18:06;;;;;;;1.07;1.07;;;6.20;99.90;5.70;101501.00;;;;5113653;28;20161;-67
2022/04/11 05:20:31;;;;;;;1.93;1.83;;;6.20;99.90;5.70;101505.00;;;;5113321;28;20180;-67
2022/04/11 05:22:57;;;;;;;1.13;1.13;;;6.10;99.90;6.00;101475.00;;;;5095183;28;20556;-67
2022/04/11 05:25:23;;;;;;;0.90;0.90;;;6.20;99.90;6.30;101516.00;;;;5113184;28;20187;-67
2022/04/11 05:27:54;;;;;;;1.20;1.20;;;6.40;99.90;6.20;101515.00;;;;5113482;28;20538;-68
2022/04/11 05:30:23;;;;;;;0.90;0.90;;;6.50;99.90;6.60;101517.00;;;;5112112;28;20181;-68
2022/04/11 05:32:52;;;;;;;0.60;0.60;;;6.70;99.90;6.50;101525.00;;;;5096308;28;20674;-67
2022/04/11 05:35:17;;;;;;;0.70;0.70;;;6.80;99.90;7.00;101513.00;;;;5113325;28;20695;-67
2022/04/11 05:37:43;;;;;;;1.10;1.10;;;7.00;99.90;7.30;101527.00;;;;5096578;28;20285;-67
2022/04/11 05:40:12;;;;;;;0.73;0.67;;;7.20;99.90;7.70;101518.00;;;;5096074;28;20179;-68
2022/04/11 05:42:41;;;;;;;0.70;0.70;;;7.50;99.90;7.90;101536.00;;;;5112284;28;20662;-68
2022/04/11 05:45:07;;;;;;;1.07;1.07;;;7.70;99.90;7.60;101552.00;;;;5095731;28;20179;-68
2022/04/11 05:47:34;;;;;;;1.70;1.60;;;7.70;99.90;8.10;101520.00;;;;5112698;28;20191;-68
2022/04/11 05:50:02;;;;;;;1.43;1.07;;;7.90;99.90;7.50;101550.00;;;;5113042;28;20677;-68
2022/04/11 05:52:38;;;;;;;0.90;0.90;;;7.80;99.90;7.80;101569.00;;;;5094940;28;20257;-68
2022/04/11 05:55:04;;;;;;;0.60;0.50;;;7.90;99.90;7.70;101559.00;;;;5095921;28;20187;-69
2022/04/11 05:57:30;;;;;;;0.40;0.40;;;8.00;99.90;8.10;101565.00;;;;5113121;28;20296;-69
2022/04/11 05:59:58;;;;;;;1.00;1.00;;;8.20;99.90;7.90;101575.00;;;;5096039;28;20187;-69
2022/04/11 06:02:23;;;;;;;0.43;0.43;;;8.20;99.90;8.30;101582.00;;;;5095053;28;20639;-69
2022/04/11 06:04:52;;;;;;;0.30;0.30;;;8.30;99.90;8.60;101575.00;;;;5095713;28;20179;-69
2022/04/11 06:07:20;;;;;;;1.70;1.60;;;8.50;99.90;9.70;101596.00;;;;5113856;27;20202;-69
2022/04/11 06:09:49;;;;;;;0.93;0.93;;;9.20;99.90;9.80;101577.00;;;;5096035;28;20185;-69
2022/04/11 06:12:14;;;;;;;2.97;0.60;;;9.50;99.90;10.30;101625.00;;;;5095951;28;20210;-69
2022/04/11 06:14:43;;;;;;;2.80;1.83;;;10.00;99.90;9.50;101626.00;;;;5113906;28;20587;-68
2022/04/11 06:17:09;;;;;;;0.50;0.50;;;9.80;99.90;10.30;101630.00;;;;5095828;28;20173;-69
2022/04/11 06:19:38;;;;;;;2.00;1.33;;;9.90;99.90;10.50;101620.00;;;;5095553;28;20187;-69
2022/04/11 06:22:06;;;;;;;0.20;0.20;;;10.20;99.90;10.90;101644.00;;;;5095547;28;20631;-69
2022/04/11 06:24:32;;;;;;;0.33;0.33;;;10.50;99.90;11.40;101645.00;;;;5112558;28;20173;-69
2022/04/11 06:27:01;;;;;;;11.30;0.67;;;10.80;99.90;11.50;101652.00;;;;5111766;28;20679;-68
2022/04/11 06:29:26;;;;;;;1.40;1.17;;;11.10;99.90;11.60;101668.00;;;;5095805;28;20617;-67
2022/04/11 06:31:54;;;;;;;0.27;0.27;;;11.30;99.90;11.90;101668.00;;;;5095456;28;20228;-67
2022/04/11 06:34:22;;;;;;;0.33;0.33;;;11.60;99.90;12.90;101672.00;;;;5113486;28;20174;-67
2022/04/11 06:36:51;;;;;;;0.40;0.40;;;12.10;99.90;12.90;101681.00;;;;5094971;28;20292;-68
2022/04/11 06:39:22;;;;;;;0.27;0.27;;;12.30;99.90;12.80;101661.00;;;;5112012;28;20232;-68
2022/04/11 06:41:50;;;;;;;1.47;1.37;;;12.40;99.90;12.30;101686.00;;;;5094469;28;20712;-67
2022/04/11 06:44:19;;;;;;;0.40;0.40;;;12.20;99.90;12.10;101679.00;;;;5112113;28;20175;-67
2022/04/11 06:46:55;;;;;;;0.57;0.30;;;12.00;99.90;13.20;101686.00;;;;5094648;28;20282;-66
2022/04/11 06:49:30;;;;;;;2.00;1.90;;;12.40;99.90;13.00;101689.00;;;;5095762;28;20190;-68
2022/04/11 06:52:02;;;;;;;0.53;0.50;;;12.50;99.90;13.80;101684.00;;;;5112409;28;20200;-69
2022/04/11 06:54:30;;;;;;;2.10;1.40;;;13.00;99.90;12.50;101675.00;;;;5114576;28;20181;-68
2022/04/11 06:57:02;;;;;;;0.23;0.23;;;13.00;99.90;12.60;101675.00;;;;5115990;28;20610;-68
2022/04/11 06:59:36;;;;;;;1.97;1.73;;;12.50;99.90;13.20;101680.00;;;;5112313;28;20270;-68
2022/04/11 07:02:02;;;;;;;0.10;0.10;;;12.90;99.90;12.70;101644.00;;;;5117356;28;20191;-70
2022/04/11 07:04:31;;;;;;;0.20;0.20;;;12.90;99.90;12.40;101685.00;;;;5116432;28;20183;-69
2022/04/11 07:06:59;;;;;;;0.30;0.30;;;12.70;99.90;12.60;101679.00;;;;5116196;28;20178;-68
2022/04/11 07:09:26;;;;;;;2.53;2.13;;;12.50;99.90;13.20;101680.00;;;;5097683;28;20186;-69
2022/04/11 07:11:52;;;;;;;0.50;0.50;;;12.80;99.90;13.20;101672.00;;;;5113092;28;20256;-69
2022/04/11 07:14:21;;;;;;;1.03;0.77;;;13.00;99.90;12.20;101673.00;;;;5115291;28;20252;-68
2022/04/11 07:16:49;;;;;;;0.53;0.53;;;12.50;99.90;13.70;101668.00;;;;5116287;28;20597;-68
2022/04/11 07:19:24;;;;;;;0.10;0.10;;;13.10;99.90;13.50;101657.00;;;;5115713;28;20213;-68
2022/04/11 07:21:55;;;;;;;0.60;0.60;;;13.30;99.90;14.50;101579.00;;;;5116102;28;20187;-68
2022/04/11 07:24:26;;;;;;;2.63;1.30;;;14.10;99.90;14.00;101587.00;;;;5098674;28;20202;-68
2022/04/11 07:26:52;;;;;;;5.20;0.53;;;13.90;99.90;13.50;101587.00;;;;5115967;28;20190;-68
2022/04/11 07:29:18;;;;;;;0.83;0.40;;;13.80;99.90;13.60;101588.00;;;;5090173;28;20553;-68
2022/04/11 07:31:46;;;;;;;0.80;0.63;;;13.70;99.90;14.30;101577.00;;;;5096801;28;20638;-68
2022/04/11 07:34:15;;;;;;;0.20;0.20;;;14.10;99.90;13.60;101547.00;;;;5078386;28;20196;-68
2022/04/11 07:36:41;;;;;;;0.40;0.40;;;13.70;99.90;14.10;101591.00;;;;5078534;28;20184;-68
2022/04/11 07:39:09;;;;;;;0.80;0.80;;;13.90;99.90;13.10;101591.00;;;;5077958;28;20188;-65
2022/04/11 07:41:37;;;;;;;0.37;0.30;;;13.40;99.90;14.50;101581.00;;;;5096423;28;20617;-66
2022/04/11 07:44:09;;;;;;;1.07;0.77;;;13.90;99.90;14.20;101544.00;;;;5106422;28;20384;-67
2022/04/11 07:46:35;;;;;;;0.20;0.20;;;14.10;99.90;14.70;101570.00;;;;5116857;28;20178;-68
2022/04/11 07:49:03;;;;;;;1.10;1.03;;;14.30;99.90;13.30;101592.00;;;;5114847;28;20172;-71
2022/04/11 07:51:28;;;;;;;0.87;0.87;;;13.60;99.90;13.50;101582.00;;;;5098155;28;20296;-71
2022/04/11 07:53:54;;;;;;;1.30;1.20;;;13.50;99.90;13.40;101579.00;;;;5115630;28;20265;-72
2022/04/11 07:56:26;;;;;;;1.20;1.10;;;13.60;99.90;14.00;101575.00;;;;5114998;28;20189;-72
2022/04/11 07:59:04;;;;;;;0.87;0.87;;;13.60;99.90;14.00;101576.00;;;;5098291;28;20173;-71
2022/04/11 08:01:30;;;;;;;2.47;0.70;;;13.80;99.90;14.20;101572.00;;;;5098501;28;20194;-71
2022/04/11 08:03:59;;;;;;;0.60;0.60;;;14.10;99.90;14.10;101571.00;;;;5097717;28;20277;-72
2022/04/11 08:06:27;;;;;;;0.30;0.30;;;14.10;99.90;14.50;101566.00;;;;5114999;28;20653;-72
2022/04/11 08:08:53;;;;;;;0.63;0.63;;;14.20;99.90;15.00;101583.00;;;;5114992;28;20189;-71
2022/04/11 08:11:19;;;;;;;0.83;0.83;;;14.60;99.90;14.70;101576.00;;;;5114363;28;20172;-72
2022/04/11 08:13:48;;;;;;;1.00;0.70;;;14.40;99.90;14.20;101533.00;;;;5114865;28;20183;-71
2022/04/11 08:16:16;;;;;;;2.37;1.73;;;14.30;99.90;14.00;101575.00;;;;5097636;28;20541;-71
2022/04/11 08:18:42;;;;;;;0.40;0.30;;;14.10;99.90;13.40;101574.00;;;;5097508;28;20510;-71
2022/04/11 08:21:11;;;;;;;2.10;0.83;;;13.80;99.90;13.60;101573.00;;;;5114773;28;20180;-71
2022/04/11 08:23:37;;;;;;;0.67;0.67;;;13.80;99.90;14.10;101565.00;;;;5098519;28;20511;-71
2022/04/11 08:26:03;;;;;;;1.07;0.67;;;14.00;99.90;13.90;101564.00;;;;5097788;28;20184;-71
2022/04/11 08:28:29;;;;;;;3.00;1.20;;;14.00;99.90;14.60;101565.00;;;;5097575;28;20179;-72
2022/04/11 08:30:55;;;;;;;0.60;0.60;;;14.40;99.90;15.10;101541.00;;;;5097416;28;20188;-72
2022/04/11 08:33:23;;;;;;;1.07;1.00;;;14.70;99.90;15.60;101525.00;;;;5114402;28;20214;-71
2022/04/11 08:35:49;;;;;;;0.40;0.40;;;15.20;99.90;15.10;101528.00;;;;5114697;28;20183;-71
2022/04/11 08:38:15;;;;;;;1.20;1.13;;;15.10;99.90;14.90;101525.00;;;;5097533;28;20186;-71
2022/04/11 08:40:41;;;;;;;1.60;1.33;;;15.00;99.90;15.70;101505.00;;;;5097505;28;20281;-70
2022/04/11 08:43:13;;;;;;;1.07;0.60;;;15.30;99.90;14.80;101528.00;;;;5097372;28;20172;-69
2022/04/11 08:45:39;;;;;;;0.20;0.20;;;15.10;99.90;15.40;101523.00;;;;5114542;28;20266;-71
2022/04/11 08:48:05;;;;;;;1.93;0.70;;;15.20;99.90;15.60;101485.00;;;;5096138;28;20305;-72
2022/04/11 08:50:36;;;;;;;3.77;3.33;;;15.40;99.90;15.60;101466.00;;;;5107060;28;20191;-71
2022/04/11 08:53:03;;;;;;;3.20;3.03;;;15.50;99.90;15.50;101508.00;;;;5112580;28;20214;-71
2022/04/11 08:55:29;;;;;;;2.90;0.60;;;15.50;99.90;15.60;101494.00;;;;5085944;28;20199;-71
2022/04/11 08:58:03;;;;;;;1.53;1.13;;;15.50;99.90;15.20;101508.00;;;;5084092;28;20651;-73
2022/04/11 09:00:31;;;;;;;0.90;0.90;;;15.30;99.90;14.90;101501.00;;;;5098952;28;20179;-73
2022/04/11 09:02:59;;;;;;;2.20;2.10;;;15.40;99.90;15.60;101497.00;;;;5114394;28;20180;-72
2022/04/11 09:05:31;;;;;;;1.60;1.27;;;15.50;99.90;16.00;101488.00;;;;5095701;28;20215;-77
2022/04/11 09:07:59;;;;;;;4.00;3.00;;;15.80;99.90;16.00;101458.00;;;;5113691;28;20220;-75
2022/04/11 09:10:32;;;;;;;0.40;0.40;;;15.90;99.20;15.90;101489.00;;;;5113417;28;20679;-75
2022/04/11 09:13:00;;;;;;;1.13;1.03;;;15.90;98.90;15.80;101475.00;;;;5113576;28;20239;-75
2022/04/11 09:15:38;;;;;;;2.17;1.20;;;15.70;99.40;15.70;101490.00;;;;5112542;28;20768;-75
2022/04/11 09:18:06;;;;;;;0.70;0.70;;;15.70;98.50;15.80;101479.00;;;;5112923;28;20566;-77
2022/04/11 09:20:32;;;;;;;0.63;0.63;;;15.60;99.40;15.90;101479.00;;;;5113814;28;20180;-75
2022/04/11 09:23:00;;;;;;;0.50;0.50;;;15.70;98.90;16.00;101451.00;;;;5096455;28;20657;-77
2022/04/11 09:25:31;;;;;;;1.23;0.87;;;15.90;98.10;16.50;101473.00;;;;5096678;28;20179;-76
2022/04/11 09:28:07;;;;;;;1.37;1.00;;;16.10;99.00;16.70;101474.00;;;;5112610;28;20512;-73
2022/04/11 09:30:40;;;;;;;2.03;1.20;;;16.50;98.70;16.50;101485.00;;;;5107426;28;20265;-73
2022/04/11 09:33:09;;;;;;;1.23;0.70;;;16.50;98.10;16.80;101464.00;;;;5092792;28;20580;-73
2022/04/11 09:35:45;;;;;;;0.67;0.67;;;16.60;98.20;15.60;101480.00;;;;5108288;28;20184;-72
2022/04/11 09:38:20;;;;;;;0.70;0.70;;;16.30;97.60;16.10;101458.00;;;;5113273;28;20175;-72
2022/04/11 09:40:54;;;;;;;1.07;0.97;;;16.20;96.60;16.60;101453.00;;;;5096411;28;20183;-72
2022/04/11 09:43:31;;;;;;;2.07;1.13;;;16.30;95.80;16.00;101423.00;;;;5095656;28;20277;-72
2022/04/11 09:46:12;;;;;;;0.77;0.77;;;16.20;96.30;15.70;101465.00;;;;5112673;28;20193;-75
2022/04/11 09:48:48;;;;;;;1.23;0.80;;;15.80;96.70;16.10;101469.00;;;;5097023;28;20239;-76
2022/04/11 09:51:20;;;;;;;1.20;0.90;;;15.80;97.70;15.60;101457.00;;;;5096419;28;20184;-79
2022/04/11 09:53:46;;;;;;;1.90;1.70;;;15.90;96.40;16.20;101440.00;;;;5095931;28;20646;-78
2022/04/11 09:56:19;;;;;;;8.50;0.57;;;16.00;94.50;15.90;101435.00;;;;5095242;28;20551;-73
2022/04/11 09:58:52;;;;;;;1.33;1.13;;;16.00;95.40;15.40;101425.00;;;;5112813;28;20205;-77
2022/04/11 10:01:31;;;;;;;0.63;0.43;;;15.90;94.70;15.80;101444.00;;;;5112804;28;20615;-75
2022/04/11 10:04:07;;;;;;;0.60;0.60;;;15.90;94.80;16.10;101425.00;;;;5112100;28;20178;-77
2022/04/11 10:06:41;;;;;;;0.60;0.60;;;16.00;94.00;16.50;101417.00;;;;5096408;28;20179;-72
2022/04/11 10:09:07;;;;;;;2.70;0.83;;;16.30;94.30;16.20;101414.00;;;;5092150;28;20188;-77
2022/04/11 10:11:36;;;;;;;0.60;0.60;;;16.20;94.20;16.50;101385.00;;;;5110461;28;20268;-76
2022/04/11 10:14:03;;;;;;;0.43;0.43;;;16.40;92.80;16.80;101419.00;;;;5093995;28;20180;-76
2022/04/11 10:16:40;;;;;;;2.20;1.67;;;16.50;92.90;16.60;101424.00;;;;5075143;28;20186;-78
2022/04/11 10:19:09;;;;;;;2.77;2.57;;;16.60;92.30;16.10;101406.00;;;;5114964;27;20189;-78
2022/04/11 10:33:10;;;;;;;0.37;0.37;;;16.10;91.60;16.40;101383.00;;;;5112832;27;1346656;-77
2022/04/11 10:35:44;;;;;;;1.47;1.13;;;16.40;92.30;17.00;101388.00;;;;5131569;27;20184;-77
2022/04/11 10:38:15;;;;;;;0.67;0.67;;;16.90;92.10;17.00;101386.00;;;;5129722;28;20181;-77
2022/04/11 10:40:51;;;;;;;0.70;0.70;;;17.00;91.80;16.90;101370.00;;;;5130046;28;20188;-78
2022/04/11 10:43:18;;;;;;;1.83;0.93;;;16.90;91.90;17.20;101371.00;;;;5129612;28;20746;-77
2022/04/11 10:46:05;;;;;;;0.83;0.70;;;17.10;91.40;17.40;101373.00;;;;5113101;28;20187;-77
2022/04/11 10:48:59;;;;;;;1.10;1.00;;;17.30;90.80;16.30;101387.00;;;;5129035;28;20172;-77
2022/04/11 10:51:28;;;;;;;0.73;0.73;;;17.00;90.80;16.80;101378.00;;;;5112812;28;20285;-77
2022/04/11 10:54:31;;;;;;;1.70;1.27;;;16.90;91.70;16.20;101351.00;;;;5112826;28;20190;-77
2022/04/11 10:56:59;;;;;;;0.50;0.50;;;16.50;92.00;17.40;101339.00;;;;5100100;28;20277;-77
2022/04/11 11:00:08;;;;;;;0.80;0.80;;;16.90;91.80;16.50;101333.00;;;;5129616;28;20189;-77
2022/04/11 11:05:40;;;;;;;1.17;1.07;;;16.50;90.90;15.70;101356.00;;;;5130886;27;20198;-78
2022/04/11 11:08:09;;;;;;;2.17;0.67;;;16.10;91.00;16.60;101314.00;;;;5129218;28;20182;-77
2022/04/11 11:10:57;;;;;;;2.83;1.37;;;16.50;90.90;16.80;101336.00;;;;5129978;27;20696;-78
2022/04/11 11:13:35;;;;;;;0.63;0.63;;;16.60;91.20;17.00;101325.00;;;;5129606;27;20329;-77
2022/04/11 11:16:10;;;;;;;0.83;0.70;;;16.90;91.50;16.10;101359.00;;;;5129200;28;20184;-76
2022/04/11 11:18:48;;;;;;;0.70;0.70;;;16.50;90.80;16.30;101338.00;;;;5129650;28;20310;-77